createdAt,value
2022-09-23T00:01:00.678Z,5.97
2022-09-23T00:03:28.719Z,8.10
2022-09-23T00:06:05.885Z,2.87
2022-09-23T00:08:33.371Z,3.07
2022-09-23T00:11:08.399Z,4.60
2022-09-23T00:13:36.192Z,6.47
2022-09-23T00:16:04.916Z,5.63
2022-09-23T00:18:31.620Z,3.50
2022-09-23T00:20:58.269Z,3.07
2022-09-23T00:23:24.888Z,2.27
2022-09-23T00:25:59.652Z,2.63
2022-09-23T00:28:26.361Z,2.60
2022-09-23T00:30:53.006Z,4.40
2022-09-23T00:33:19.674Z,2.70
2022-09-23T00:35:46.342Z,6.40
2022-09-23T00:38:14.219Z,3.97
2022-09-23T00:40:46.149Z,3.53
2022-09-23T00:43:14.152Z,4.30
2022-09-23T00:45:46.750Z,2.80
2022-09-23T00:48:22.484Z,3.13
2022-09-23T00:50:53.474Z,7.10
2022-09-23T00:53:24.077Z,3.07
2022-09-23T00:55:54.821Z,4.30
2022-09-23T00:58:27.941Z,3.40
2022-09-23T01:00:55.583Z,2.60
2022-09-23T01:03:22.983Z,5.20
2022-09-23T01:05:50.299Z,3.77
2022-09-23T01:08:17.569Z,8.90
2022-09-23T01:11:24.960Z,4.40
2022-09-23T01:14:06.608Z,5.23
2022-09-23T01:16:42.917Z,3.87
2022-09-23T01:19:21.590Z,5.17
2022-09-23T01:21:57.064Z,4.63
2022-09-23T01:24:46.206Z,5.00
2022-09-23T01:27:46.762Z,3.80
2022-09-23T01:30:48.810Z,6.57
2022-09-23T01:33:36.783Z,6.27
2022-09-23T01:36:13.767Z,4.83
2022-09-23T01:39:10.906Z,4.50
2022-09-23T01:41:52.788Z,4.03
2022-09-23T01:44:39.111Z,3.30
2022-09-23T01:47:14.662Z,3.33
2022-09-23T01:49:57.308Z,3.23
2022-09-23T01:52:35.381Z,5.60
2022-09-23T01:55:26.868Z,2.83
2022-09-23T01:58:01.066Z,4.37
2022-09-23T02:00:30.058Z,3.97
2022-09-23T02:03:05.972Z,4.07
2022-09-23T02:05:44.656Z,4.43
2022-09-23T02:08:11.202Z,3.90
2022-09-23T02:10:53.813Z,5.87
2022-09-23T02:13:30.934Z,6.93
2022-09-23T02:16:01.355Z,5.53
2022-09-23T02:18:38.818Z,5.40
2022-09-23T02:21:09.488Z,5.87
2022-09-23T02:23:42.479Z,8.70
2022-09-23T02:26:19.387Z,11.37
2022-09-23T02:28:53.522Z,9.50
2022-09-23T02:31:30.664Z,6.17
2022-09-23T02:33:59.985Z,8.20
2022-09-23T02:36:31.458Z,3.73
2022-09-23T02:39:06.039Z,3.60
2022-09-23T02:41:44.897Z,3.43
2022-09-23T02:44:15.960Z,4.17
2022-09-23T02:46:43.677Z,2.63
2022-09-23T02:49:15.932Z,5.60
2022-09-23T02:51:42.778Z,2.60
2022-09-23T02:54:14.888Z,4.60
2022-09-23T02:56:42.156Z,4.53
2022-09-23T02:59:10.086Z,3.37
2022-09-23T03:01:47.836Z,3.33
2022-09-23T03:04:21.534Z,3.23
2022-09-23T03:07:06.298Z,3.30
2022-09-23T03:09:44.570Z,3.40
2022-09-23T03:12:21.499Z,4.47
2022-09-23T03:14:59.095Z,3.50
2022-09-23T03:17:34.229Z,5.20
2022-09-23T03:20:12.549Z,3.10
2022-09-23T03:22:48.792Z,3.50
2022-09-23T03:25:21.264Z,2.90
2022-09-23T03:27:48.130Z,5.07
2022-09-23T03:30:14.924Z,4.73
2022-09-23T03:32:45.508Z,5.47
2022-09-23T03:35:13.403Z,3.13
2022-09-23T03:38:09.502Z,3.60
2022-09-23T03:40:43.601Z,4.03
2022-09-23T03:43:13.421Z,5.77
2022-09-23T03:45:42.602Z,3.40
2022-09-23T03:48:09.547Z,3.47
2022-09-23T03:50:36.349Z,3.33
2022-09-23T03:53:03.008Z,3.27
2022-09-23T03:55:29.581Z,3.20
2022-09-23T03:57:56.740Z,4.40
2022-09-23T04:00:23.566Z,3.33
2022-09-23T04:02:50.147Z,6.07
2022-09-23T04:05:17.909Z,5.67
2022-09-23T04:07:44.985Z,5.40
2022-09-23T04:10:11.790Z,3.33
2022-09-23T04:12:38.548Z,3.60
2022-09-23T04:15:05.696Z,4.73
2022-09-23T04:17:32.305Z,7.07
2022-09-23T04:19:58.973Z,3.63
2022-09-23T04:22:25.725Z,4.83
2022-09-23T04:24:52.340Z,4.10
2022-09-23T04:27:18.973Z,3.53
2022-09-23T04:29:45.557Z,3.30
2022-09-23T04:32:12.203Z,3.23
2022-09-23T04:34:38.825Z,3.53
2022-09-23T04:37:05.367Z,3.20
2022-09-23T04:39:32.009Z,6.00
2022-09-23T04:41:59.662Z,4.47
2022-09-23T04:44:28.103Z,3.93
2022-09-23T04:46:54.825Z,6.90
2022-09-23T04:49:21.428Z,4.80
2022-09-23T04:51:48.030Z,3.80
2022-09-23T04:54:15.072Z,3.90
2022-09-23T04:56:42.474Z,4.33
2022-09-23T04:59:09.099Z,5.67
2022-09-23T05:01:36.587Z,4.50
2022-09-23T05:04:07.511Z,6.83
2022-09-23T05:06:35.456Z,8.97
2022-09-23T05:09:04.624Z,11.20
2022-09-23T05:11:31.622Z,11.17
2022-09-23T05:13:59.001Z,11.03
2022-09-23T05:16:27.121Z,13.20
2022-09-23T05:18:54.451Z,7.40
2022-09-23T05:21:23.355Z,9.10
2022-09-23T05:23:55.283Z,6.43
2022-09-23T05:26:25.294Z,6.93
2022-09-23T05:28:52.608Z,6.43
2022-09-23T05:31:21.793Z,6.00
2022-09-23T05:34:02.423Z,5.43
2022-09-23T05:36:35.530Z,8.43
2022-09-23T05:39:05.416Z,28.93
2022-09-23T05:41:33.879Z,11.20
2022-09-23T05:44:01.103Z,6.90
2022-09-23T05:46:29.948Z,7.10
2022-09-23T05:49:02.103Z,6.20
2022-09-23T05:51:31.075Z,8.97
2022-09-23T05:53:58.816Z,7.70
2022-09-23T05:56:27.534Z,9.63
2022-09-23T05:58:56.215Z,5.87
2022-09-23T06:01:25.647Z,6.53
2022-09-23T06:03:53.575Z,6.53
2022-09-23T06:06:26.111Z,6.10
2022-09-23T06:08:52.745Z,6.70
2022-09-23T06:11:21.427Z,8.97
2022-09-23T06:13:49.365Z,8.10
2022-09-23T06:16:16.596Z,11.67
2022-09-23T06:18:45.129Z,7.93
2022-09-23T06:21:17.128Z,6.43
2022-09-23T06:23:44.899Z,9.37
2022-09-23T06:26:14.302Z,9.50
2022-09-23T06:28:42.933Z,8.20
2022-09-23T06:31:16.864Z,10.93
2022-09-23T06:33:44.979Z,15.90
2022-09-23T06:36:19.379Z,9.47
2022-09-23T06:38:51.194Z,7.00
2022-09-23T06:41:17.860Z,12.97
2022-09-23T06:43:44.466Z,7.77
2022-09-23T06:46:15.587Z,7.03
2022-09-23T06:48:46.413Z,7.37
2022-09-23T06:51:22.951Z,7.50
2022-09-23T06:53:49.984Z,9.27
2022-09-23T06:56:17.907Z,8.07
2022-09-23T06:58:44.509Z,8.33
2022-09-23T07:01:13.413Z,12.33
2022-09-23T07:03:40.033Z,8.20
2022-09-23T07:06:07.206Z,6.57
2022-09-23T07:08:35.073Z,8.27
2022-09-23T07:11:06.576Z,6.50
2022-09-23T07:13:34.290Z,5.83
2022-09-23T07:16:02.172Z,5.43
2022-09-23T07:18:36.731Z,5.53
2022-09-23T07:21:15.746Z,5.90
2022-09-23T07:23:45.986Z,5.33
2022-09-23T07:26:14.156Z,6.80
2022-09-23T07:28:40.820Z,6.60
2022-09-23T07:31:10.070Z,4.47
2022-09-23T07:33:38.467Z,5.70
2022-09-23T07:36:08.441Z,6.70
2022-09-23T07:38:35.446Z,5.67
2022-09-23T07:41:10.268Z,5.97
2022-09-23T07:43:37.897Z,8.27
2022-09-23T07:46:08.486Z,9.27
2022-09-23T07:48:36.067Z,7.57
2022-09-23T07:51:21.252Z,6.17
2022-09-23T07:53:49.321Z,9.87
2022-09-23T07:56:17.314Z,8.30
2022-09-23T07:58:43.941Z,15.53
2022-09-23T08:01:12.145Z,5.80
2022-09-23T08:03:39.440Z,8.30
2022-09-23T08:06:12.253Z,5.80
2022-09-23T08:08:43.408Z,6.43
2022-09-23T08:11:13.210Z,6.00
2022-09-23T08:13:40.479Z,8.10
2022-09-23T08:16:07.174Z,6.40
2022-09-23T08:18:34.504Z,6.47
2022-09-23T08:21:01.404Z,6.37
2022-09-23T08:23:33.260Z,6.13
2022-09-23T08:26:02.834Z,5.90
2022-09-23T08:28:30.226Z,5.70
2022-09-23T08:30:57.033Z,5.40
2022-09-23T08:33:24.109Z,7.43
2022-09-23T08:35:52.148Z,6.43
2022-09-23T08:38:20.412Z,5.87
2022-09-23T08:40:49.596Z,7.00
2022-09-23T08:43:26.685Z,7.03
2022-09-23T08:45:56.835Z,7.47
2022-09-23T08:48:30.043Z,7.00
2022-09-23T08:51:05.274Z,7.13
2022-09-23T08:53:36.647Z,5.90
2022-09-23T08:56:07.222Z,6.53
2022-09-23T08:58:39.814Z,5.90
2022-09-23T09:01:34.648Z,4.87
2022-09-23T09:04:05.773Z,8.37
2022-09-23T09:06:52.384Z,3.77
2022-09-23T09:09:29.237Z,4.20
2022-09-23T09:12:14.181Z,4.63
2022-09-23T09:14:58.137Z,3.50
2022-09-23T09:17:48.365Z,3.40
2022-09-23T09:20:14.974Z,4.23
2022-09-23T09:22:48.408Z,3.87
2022-09-23T09:25:34.129Z,4.70
2022-09-23T09:28:01.387Z,3.47
2022-09-23T09:30:28.311Z,3.73
2022-09-23T09:33:01.959Z,4.43
2022-09-23T09:35:42.000Z,4.23
2022-09-23T09:38:08.677Z,3.10
2022-09-23T09:40:35.390Z,3.87
2022-09-23T09:43:05.449Z,3.37
2022-09-23T09:46:06.619Z,3.33
2022-09-23T09:48:39.264Z,3.77
2022-09-23T09:51:24.383Z,3.80
2022-09-23T09:53:55.683Z,7.17
2022-09-23T09:56:34.585Z,5.83
2022-09-23T09:59:10.889Z,3.10
2022-09-23T10:01:38.055Z,3.17
2022-09-23T10:04:19.894Z,6.93
2022-09-23T10:07:16.691Z,3.60
2022-09-23T10:09:50.890Z,3.47
2022-09-23T10:12:18.987Z,3.60
2022-09-23T10:14:50.569Z,5.87
2022-09-23T10:17:24.543Z,3.20
2022-09-23T10:20:00.843Z,2.50
2022-09-23T10:22:33.306Z,3.33
2022-09-23T10:25:07.431Z,2.60
2022-09-23T10:27:36.133Z,3.23
2022-09-23T10:30:21.594Z,3.10
2022-09-23T10:32:48.811Z,3.17
2022-09-23T10:35:22.605Z,2.37
2022-09-23T10:37:56.522Z,2.40
2022-09-23T10:40:54.220Z,2.90
2022-09-23T10:43:45.701Z,2.40
2022-09-23T10:46:38.529Z,3.10
2022-09-23T10:49:40.436Z,2.13
2022-09-23T10:52:42.538Z,2.23
2022-09-23T10:55:37.152Z,2.90
2022-09-23T10:58:25.637Z,1.87
2022-09-23T11:01:05.816Z,2.00
2022-09-23T11:03:50.831Z,2.03
2022-09-23T11:06:26.772Z,2.13
2022-09-23T11:09:07.479Z,2.00
2022-09-23T11:11:46.312Z,2.07
2022-09-23T11:14:23.870Z,2.10
2022-09-23T11:16:53.490Z,2.50
2022-09-23T11:19:45.854Z,2.40
2022-09-23T11:22:32.239Z,2.30
2022-09-23T11:25:40.278Z,2.40
2022-09-23T11:28:37.927Z,2.47
2022-09-23T11:31:25.468Z,1.80
2022-09-23T11:34:01.707Z,3.60
2022-09-23T11:36:37.370Z,2.10
2022-09-23T11:39:19.532Z,2.00
2022-09-23T11:41:48.197Z,2.03
2022-09-23T11:44:31.786Z,2.60
2022-09-23T11:47:07.563Z,2.13
2022-09-23T11:49:43.204Z,2.43
2022-09-23T11:52:20.585Z,2.20
2022-09-23T11:54:56.542Z,1.60
2022-09-23T11:57:26.210Z,2.13
2022-09-23T12:00:12.708Z,2.00
2022-09-23T12:03:05.619Z,2.23
2022-09-23T12:05:44.687Z,1.77
2022-09-23T12:08:28.581Z,1.90
2022-09-23T12:11:06.500Z,1.60
2022-09-23T12:13:49.637Z,1.73
2022-09-23T12:16:53.682Z,1.87
2022-09-23T12:19:28.142Z,1.60
2022-09-23T12:22:09.738Z,1.70
2022-09-23T12:24:50.328Z,1.70
2022-09-23T12:27:25.046Z,2.97
2022-09-23T12:29:56.862Z,1.50
2022-09-23T12:32:24.994Z,2.00
2022-09-23T12:34:53.439Z,1.70
2022-09-23T12:37:45.278Z,1.47
2022-09-23T12:40:28.302Z,1.60
2022-09-23T12:42:55.145Z,2.70
2022-09-23T12:45:32.609Z,1.53
2022-09-23T12:48:00.865Z,1.50
2022-09-23T12:50:46.174Z,1.60
2022-09-23T12:53:34.783Z,1.50
2022-09-23T12:56:19.759Z,2.43
2022-09-23T12:58:46.305Z,1.80
2022-09-23T13:01:17.128Z,1.60
2022-09-23T13:04:10.737Z,1.47
2022-09-23T13:06:56.586Z,1.97
2022-09-23T13:09:27.347Z,2.33
2022-09-23T13:11:59.882Z,1.70
2022-09-23T13:14:29.066Z,1.87
2022-09-23T13:16:58.489Z,1.63
2022-09-23T13:19:28.071Z,2.40
2022-09-23T13:21:54.601Z,2.23
2022-09-23T13:24:31.082Z,1.70
2022-09-23T13:27:13.052Z,2.20
2022-09-23T13:30:04.846Z,2.53
2022-09-23T13:32:35.787Z,2.00
2022-09-23T13:35:18.638Z,5.20
2022-09-23T13:37:49.718Z,2.30
2022-09-23T13:40:19.604Z,2.97
2022-09-23T13:43:00.397Z,2.30
2022-09-23T13:45:29.501Z,2.37
2022-09-23T13:48:07.388Z,2.60
2022-09-23T13:50:38.482Z,2.43
2022-09-23T13:53:13.302Z,2.17
2022-09-23T13:55:41.006Z,2.30
2022-09-23T13:58:17.334Z,2.30
2022-09-23T14:00:44.555Z,2.13
2022-09-23T14:03:26.300Z,2.30
2022-09-23T14:05:55.403Z,2.70
2022-09-23T14:08:22.746Z,4.70
2022-09-23T14:10:49.659Z,5.00
2022-09-23T14:13:34.026Z,1.97
2022-09-23T14:16:04.099Z,1.90
2022-09-23T14:18:36.607Z,3.67
2022-09-23T14:21:04.031Z,2.60
2022-09-23T14:23:31.001Z,2.13
2022-09-23T14:25:59.063Z,2.80
2022-09-23T14:28:27.660Z,2.80
2022-09-23T14:30:58.353Z,2.13
2022-09-23T14:33:33.339Z,2.13
2022-09-23T14:36:29.287Z,2.50
2022-09-23T14:39:12.536Z,2.80
2022-09-23T14:41:42.601Z,2.40
2022-09-23T14:44:25.061Z,2.43
2022-09-23T14:46:59.664Z,3.17
2022-09-23T14:49:27.449Z,2.73
2022-09-23T14:52:01.267Z,2.80
2022-09-23T14:54:40.030Z,1.70
2022-09-23T14:57:25.468Z,1.93
2022-09-23T15:00:01.338Z,2.53
2022-09-23T15:02:28.976Z,3.23
2022-09-23T15:05:17.861Z,2.23
2022-09-23T15:07:52.584Z,7.73
2022-09-23T15:10:30.443Z,7.97
2022-09-23T15:13:07.307Z,9.00
2022-09-23T15:15:35.619Z,38.60
2022-09-23T15:18:08.053Z,34.17
2022-09-23T15:20:35.882Z,4.33
2022-09-23T15:23:02.555Z,5.90
2022-09-23T15:25:33.685Z,2.37
2022-09-23T15:28:15.878Z,2.17
2022-09-23T15:30:42.817Z,5.53
2022-09-23T15:33:14.893Z,2.90
2022-09-23T15:35:46.560Z,3.10
2022-09-23T15:38:13.637Z,2.07
2022-09-23T15:40:40.381Z,2.23
2022-09-23T15:43:20.505Z,5.50
2022-09-23T15:45:54.706Z,2.50
2022-09-23T15:48:27.840Z,2.47
2022-09-23T15:50:55.032Z,2.47
2022-09-23T15:53:24.538Z,4.00
2022-09-23T15:55:51.620Z,2.37
2022-09-23T15:58:19.204Z,2.47
2022-09-23T16:00:46.913Z,1.57
2022-09-23T16:03:15.114Z,1.73
2022-09-23T16:05:47.262Z,2.33
2022-09-23T16:08:14.767Z,3.93
2022-09-23T16:10:43.047Z,2.57
2022-09-23T16:13:13.929Z,2.00
2022-09-23T16:15:41.362Z,2.13
2022-09-23T16:18:09.688Z,1.50
2022-09-23T16:20:39.253Z,1.43
2022-09-23T16:23:39.628Z,1.60
2022-09-23T16:26:13.892Z,1.73
2022-09-23T16:29:09.493Z,1.83
2022-09-23T16:31:40.093Z,3.13
2022-09-23T16:34:07.125Z,1.90
2022-09-23T16:36:39.507Z,2.10
2022-09-23T16:39:09.666Z,2.57
2022-09-23T16:41:36.968Z,2.43
2022-09-23T16:44:07.369Z,2.70
2022-09-23T16:46:34.853Z,1.50
2022-09-23T16:49:01.567Z,4.13
2022-09-23T16:51:38.271Z,2.17
2022-09-23T16:54:10.093Z,2.50
2022-09-23T16:56:38.673Z,2.47
2022-09-23T16:59:05.489Z,2.27
2022-09-23T17:01:50.982Z,3.33
2022-09-23T17:04:19.314Z,3.53
2022-09-23T17:06:50.101Z,3.23
2022-09-23T17:09:18.890Z,4.30
2022-09-23T17:11:49.033Z,3.53
2022-09-23T17:14:16.436Z,4.67
2022-09-23T17:16:43.737Z,3.90
2022-09-23T17:19:11.839Z,3.63
2022-09-23T17:21:39.112Z,5.30
2022-09-23T17:24:05.957Z,4.47
2022-09-23T17:26:32.954Z,3.83
2022-09-23T17:29:01.498Z,6.30
2022-09-23T17:31:28.370Z,3.50
2022-09-23T17:33:55.397Z,3.70
2022-09-23T17:36:22.079Z,3.73
2022-09-23T17:38:49.526Z,4.47
2022-09-23T17:41:18.035Z,4.60
2022-09-23T17:43:45.404Z,4.37
2022-09-23T17:46:14.610Z,6.90
2022-09-23T17:48:43.256Z,5.17
2022-09-23T17:51:16.060Z,6.00
2022-09-23T17:53:45.356Z,6.13
2022-09-23T17:56:17.160Z,6.20
2022-09-23T17:58:44.878Z,7.57
2022-09-23T18:01:20.360Z,8.57
2022-09-23T18:03:47.835Z,10.90
2022-09-23T18:06:18.220Z,11.40
2022-09-23T18:08:48.614Z,15.77
2022-09-23T18:11:23.768Z,12.70
2022-09-23T18:13:59.381Z,12.80
2022-09-23T18:16:29.133Z,13.93
2022-09-23T18:19:01.938Z,16.03
2022-09-23T18:21:31.681Z,26.40
2022-09-23T18:24:21.381Z,39.67
2022-09-23T18:26:47.254Z,27.13
2022-09-23T18:29:14.122Z,23.60
2022-09-23T18:31:41.174Z,39.27
2022-09-23T18:34:16.192Z,38.03
2022-09-23T18:36:43.499Z,37.20
2022-09-23T18:39:10.132Z,27.87
2022-09-23T18:41:36.949Z,36.90
2022-09-23T18:44:06.657Z,36.87
2022-09-23T18:46:33.304Z,31.90
2022-09-23T18:49:18.747Z,34.30
2022-09-23T18:51:57.389Z,33.80
2022-09-23T18:54:26.092Z,34.73
2022-09-23T18:56:53.224Z,33.13
2022-09-23T18:59:24.676Z,25.63
2022-09-23T19:01:51.593Z,19.60
2022-09-23T19:04:20.394Z,37.70
2022-09-23T19:06:47.813Z,27.80
2022-09-23T19:09:15.767Z,26.07
2022-09-23T19:11:42.928Z,27.17
2022-09-23T19:14:11.397Z,29.20
2022-09-23T19:16:39.786Z,21.37
2022-09-23T19:19:06.895Z,24.73
2022-09-23T19:21:33.869Z,20.17
2022-09-23T19:24:05.628Z,24.53
2022-09-23T19:26:37.486Z,16.20
2022-09-23T19:29:05.635Z,9.30
2022-09-23T19:31:35.114Z,8.87
2022-09-23T19:34:10.813Z,7.83
2022-09-23T19:36:40.052Z,16.13
2022-09-23T19:39:11.969Z,13.20
2022-09-23T19:41:38.649Z,13.60
2022-09-23T19:44:07.548Z,13.40
2022-09-23T19:46:37.734Z,13.50
2022-09-23T19:49:06.271Z,13.20
2022-09-23T19:51:36.995Z,15.70
2022-09-23T19:54:05.601Z,15.73
2022-09-23T19:56:33.426Z,16.37
2022-09-23T19:59:02.953Z,16.60
2022-09-23T20:01:30.484Z,15.73
2022-09-23T20:03:57.385Z,16.33
2022-09-23T20:06:24.093Z,16.30
2022-09-23T20:08:50.798Z,16.20
2022-09-23T20:11:23.669Z,26.37
2022-09-23T20:14:01.205Z,13.93
2022-09-23T20:16:31.852Z,20.23
2022-09-23T20:18:59.808Z,23.93
2022-09-23T20:21:28.330Z,11.10
2022-09-23T20:23:55.730Z,11.37
2022-09-23T20:26:41.160Z,8.77
2022-09-23T20:29:08.945Z,11.43
2022-09-23T20:31:35.735Z,6.60
2022-09-23T20:34:05.745Z,13.40
2022-09-23T20:36:34.054Z,9.60
2022-09-23T20:39:03.536Z,8.40
2022-09-23T20:41:33.585Z,7.37
2022-09-23T20:44:00.340Z,5.77
2022-09-23T20:46:28.609Z,6.80
2022-09-23T20:48:56.699Z,3.67
2022-09-23T20:51:24.895Z,4.80
2022-09-23T20:53:52.954Z,4.23
2022-09-23T20:56:21.238Z,6.53
2022-09-23T20:58:50.453Z,7.60
2022-09-23T21:01:17.772Z,6.97
2022-09-23T21:03:46.013Z,5.47
2022-09-23T21:06:15.540Z,5.60
2022-09-23T21:08:43.546Z,4.10
2022-09-23T21:11:12.793Z,4.43
2022-09-23T21:13:39.812Z,4.03
2022-09-23T21:16:10.690Z,5.43
2022-09-23T21:18:38.379Z,5.00
2022-09-23T21:21:06.333Z,4.33
2022-09-23T21:23:35.768Z,4.83
2022-09-23T21:26:04.376Z,4.80
2022-09-23T21:28:32.191Z,6.93
2022-09-23T21:31:02.334Z,4.40
2022-09-23T21:33:30.482Z,4.60
2022-09-23T21:35:58.940Z,5.37
2022-09-23T21:38:25.548Z,4.53
2022-09-23T21:40:59.709Z,5.90
2022-09-23T21:43:28.110Z,8.17
2022-09-23T21:45:59.572Z,7.83
2022-09-23T21:48:28.845Z,12.37
2022-09-23T21:51:01.186Z,9.53
2022-09-23T21:53:30.325Z,7.37
2022-09-23T21:56:21.456Z,18.40
2022-09-23T21:58:48.339Z,19.70
2022-09-23T22:01:18.688Z,23.70
2022-09-23T22:03:50.880Z,23.63
2022-09-23T22:06:21.660Z,28.00
2022-09-23T22:08:51.031Z,25.30
2022-09-23T22:11:38.943Z,23.53
2022-09-23T22:14:08.070Z,29.90
2022-09-23T22:16:35.973Z,31.17
2022-09-23T22:19:06.878Z,21.93
2022-09-23T22:21:36.549Z,15.30
2022-09-23T22:24:04.903Z,16.13
2022-09-23T22:26:33.999Z,11.73
2022-09-23T22:29:19.307Z,11.43
2022-09-23T22:32:04.591Z,12.00
2022-09-23T22:34:49.138Z,6.10
2022-09-23T22:37:19.486Z,16.83
2022-09-23T22:39:46.271Z,5.70
2022-09-23T22:42:13.326Z,8.20
2022-09-23T22:44:39.939Z,7.70
2022-09-23T22:47:06.628Z,8.83
2022-09-23T22:49:33.375Z,7.70
2022-09-23T22:52:00.183Z,8.97
2022-09-23T22:54:33.618Z,7.27
2022-09-23T22:57:04.022Z,7.10
2022-09-23T22:59:30.749Z,7.10
2022-09-23T23:01:59.903Z,7.47
2022-09-23T23:04:27.001Z,8.90
2022-09-23T23:06:53.572Z,8.37
2022-09-23T23:09:20.244Z,10.20
2022-09-23T23:11:47.252Z,7.60
2022-09-23T23:14:16.631Z,7.17
2022-09-23T23:16:45.164Z,8.53
2022-09-23T23:19:14.298Z,8.63
2022-09-23T23:21:44.789Z,13.90
2022-09-23T23:24:20.213Z,10.57
2022-09-23T23:26:47.164Z,11.40
2022-09-23T23:29:15.726Z,11.50
2022-09-23T23:31:43.140Z,16.93
2022-09-23T23:34:15.750Z,7.13
2022-09-23T23:36:43.641Z,10.33
2022-09-23T23:39:11.236Z,10.53
2022-09-23T23:41:39.488Z,11.00
2022-09-23T23:44:07.735Z,9.03
2022-09-23T23:46:37.223Z,9.77
2022-09-23T23:49:04.591Z,12.33
2022-09-23T23:51:31.231Z,9.83
2022-09-23T23:53:58.963Z,10.43
2022-09-23T23:56:27.160Z,9.13
2022-09-23T23:58:56.173Z,13.13
